createdAt,value
2023-09-23T00:00:50.928Z,17.78
2023-09-23T00:03:18.328Z,17.77
2023-09-23T00:05:45.618Z,17.75
2023-09-23T00:08:12.843Z,17.76
2023-09-23T00:10:40.214Z,17.76
2023-09-23T00:13:07.385Z,17.74
2023-09-23T00:15:35.653Z,17.73
2023-09-23T00:18:03.590Z,17.73
2023-09-23T00:20:34.257Z,17.61
2023-09-23T00:23:02.422Z,17.56
2023-09-23T00:25:29.621Z,17.50
2023-09-23T00:27:59.280Z,17.50
2023-09-23T00:30:27.924Z,17.49
2023-09-23T00:32:55.213Z,17.49
2023-09-23T00:35:22.244Z,17.46
2023-09-23T00:37:50.181Z,17.45
2023-09-23T00:40:28.955Z,17.33
2023-09-23T00:43:10.187Z,17.22
2023-09-23T00:45:37.234Z,17.20
2023-09-23T00:48:09.619Z,17.24
2023-09-23T00:50:36.958Z,17.24
2023-09-23T00:53:06.401Z,17.22
2023-09-23T00:55:40.764Z,17.19
2023-09-23T00:58:08.655Z,17.17
2023-09-23T01:00:37.402Z,17.15
2023-09-23T01:03:04.488Z,17.15
2023-09-23T01:05:32.158Z,17.15
2023-09-23T01:08:05.783Z,17.10
2023-09-23T01:10:32.879Z,17.06
2023-09-23T01:13:00.068Z,17.07
2023-09-23T01:15:29.662Z,17.02
2023-09-23T01:17:56.922Z,16.98
2023-09-23T01:20:24.170Z,16.95
2023-09-23T01:22:51.114Z,16.94
2023-09-23T01:25:20.900Z,16.94
2023-09-23T01:27:47.853Z,16.94
2023-09-23T01:30:15.121Z,16.92
2023-09-23T01:32:49.489Z,16.88
2023-09-23T01:35:18.012Z,16.87
2023-09-23T01:37:46.053Z,16.79
2023-09-23T01:40:19.119Z,16.75
2023-09-23T01:42:50.347Z,16.79
2023-09-23T01:45:18.247Z,16.79
2023-09-23T01:47:45.606Z,16.77
2023-09-23T01:50:14.495Z,16.74
2023-09-23T01:52:44.483Z,16.71
2023-09-23T01:55:13.998Z,16.68
2023-09-23T01:57:43.729Z,16.67
2023-09-23T02:00:16.196Z,16.63
2023-09-23T02:02:43.432Z,16.60
2023-09-23T02:05:10.560Z,16.59
2023-09-23T02:07:37.627Z,16.56
2023-09-23T02:10:04.619Z,16.57
2023-09-23T02:12:33.403Z,16.54
2023-09-23T02:15:00.319Z,16.54
2023-09-23T02:17:27.422Z,16.53
2023-09-23T02:19:55.113Z,16.50
2023-09-23T02:22:22.112Z,16.49
2023-09-23T02:24:49.707Z,16.43
2023-09-23T02:27:17.548Z,16.43
2023-09-23T02:29:44.684Z,16.34
2023-09-23T02:32:12.488Z,16.35
2023-09-23T02:34:40.984Z,16.28
2023-09-23T02:37:08.005Z,16.11
2023-09-23T02:39:34.896Z,16.14
2023-09-23T02:42:05.699Z,16.22
2023-09-23T02:44:32.716Z,16.16
2023-09-23T02:46:59.703Z,16.17
2023-09-23T02:49:26.658Z,16.19
2023-09-23T02:51:53.543Z,16.19
2023-09-23T02:54:20.429Z,16.22
2023-09-23T02:56:48.080Z,16.18
2023-09-23T02:59:16.814Z,16.19
2023-09-23T03:01:49.943Z,16.19
2023-09-23T03:04:26.601Z,16.15
2023-09-23T03:07:02.941Z,16.03
2023-09-23T03:09:33.555Z,16.05
2023-09-23T03:12:02.184Z,16.01
2023-09-23T03:14:44.305Z,15.99
2023-09-23T03:17:14.182Z,15.97
2023-09-23T03:19:41.275Z,15.93
2023-09-23T03:22:09.223Z,15.95
2023-09-23T03:24:36.317Z,15.99
2023-09-23T03:27:03.479Z,15.99
2023-09-23T03:29:32.298Z,16.01
2023-09-23T03:32:00.782Z,16.00
2023-09-23T03:34:28.269Z,16.01
2023-09-23T03:36:56.283Z,15.97
2023-09-23T03:39:23.812Z,16.00
2023-09-23T03:41:50.748Z,16.03
2023-09-23T03:44:17.891Z,16.02
2023-09-23T03:46:48.737Z,16.06
2023-09-23T03:49:15.797Z,16.08
2023-09-23T03:51:43.007Z,16.08
2023-09-23T03:54:09.893Z,16.11
2023-09-23T03:56:36.893Z,16.10
2023-09-23T03:59:06.696Z,16.11
2023-09-23T04:01:34.704Z,16.11
2023-09-23T04:04:03.956Z,16.10
2023-09-23T04:06:31.448Z,16.11
2023-09-23T04:09:00.357Z,16.12
2023-09-23T04:11:28.262Z,16.22
2023-09-23T04:13:55.395Z,16.30
2023-09-23T04:16:23.174Z,16.11
2023-09-23T04:18:53.052Z,16.09
2023-09-23T04:21:22.630Z,16.11
2023-09-23T04:23:53.708Z,16.14
2023-09-23T04:26:25.542Z,16.07
2023-09-23T04:28:55.405Z,15.99
2023-09-23T04:31:25.439Z,15.97
2023-09-23T04:33:52.814Z,15.93
2023-09-23T04:36:22.583Z,16.01
2023-09-23T04:38:49.827Z,16.12
2023-09-23T04:41:16.802Z,16.16
2023-09-23T04:43:43.749Z,16.25
2023-09-23T04:46:15.922Z,16.20
2023-09-23T04:48:44.211Z,16.24
2023-09-23T04:51:11.452Z,16.31
2023-09-23T04:53:38.395Z,16.45
2023-09-23T04:56:09.810Z,16.45
2023-09-23T04:58:36.835Z,16.47
2023-09-23T05:01:05.260Z,16.65
2023-09-23T05:03:32.129Z,16.75
2023-09-23T05:05:59.130Z,16.84
2023-09-23T05:08:26.189Z,16.93
2023-09-23T05:10:53.178Z,16.86
2023-09-23T05:13:20.099Z,16.91
2023-09-23T05:15:47.018Z,16.76
2023-09-23T05:18:14.340Z,16.99
2023-09-23T05:20:41.701Z,17.16
2023-09-23T05:23:08.625Z,17.28
2023-09-23T05:25:37.294Z,17.19
2023-09-23T05:28:06.638Z,17.15
2023-09-23T05:30:34.733Z,17.29
2023-09-23T05:33:02.028Z,17.47
2023-09-23T05:35:29.297Z,17.49
2023-09-23T05:37:56.233Z,17.66
2023-09-23T05:40:23.248Z,17.69
2023-09-23T05:42:53.677Z,17.79
2023-09-23T05:45:27.326Z,17.90
2023-09-23T05:47:54.518Z,17.94
2023-09-23T05:50:22.392Z,17.82
2023-09-23T05:52:49.925Z,17.97
2023-09-23T05:55:17.384Z,18.12
2023-09-23T05:57:44.391Z,18.20
2023-09-23T06:00:12.411Z,18.24
2023-09-23T06:02:41.145Z,18.32
2023-09-23T06:05:08.464Z,18.48
2023-09-23T06:07:35.424Z,18.49
2023-09-23T06:10:05.294Z,18.58
2023-09-23T06:12:33.465Z,18.79
2023-09-23T06:15:01.368Z,18.81
2023-09-23T06:17:30.158Z,18.93
2023-09-23T06:19:57.346Z,19.04
2023-09-23T06:22:24.561Z,18.99
2023-09-23T06:24:51.870Z,19.15
2023-09-23T06:27:19.145Z,19.23
2023-09-23T06:29:46.110Z,19.27
2023-09-23T06:32:13.776Z,19.44
2023-09-23T06:34:40.833Z,19.56
2023-09-23T06:37:07.728Z,19.61
2023-09-23T06:39:34.680Z,19.74
2023-09-23T06:42:01.590Z,19.71
2023-09-23T06:44:28.555Z,19.91
2023-09-23T06:46:55.655Z,19.91
2023-09-23T06:49:22.661Z,20.01
2023-09-23T06:51:49.614Z,20.13
2023-09-23T06:54:16.526Z,20.25
2023-09-23T06:56:43.420Z,20.42
2023-09-23T06:59:10.396Z,20.43
2023-09-23T07:01:37.902Z,20.51
2023-09-23T07:04:06.018Z,20.52
2023-09-23T07:06:33.079Z,20.74
2023-09-23T07:09:00.465Z,20.79
2023-09-23T07:11:27.454Z,20.90
2023-09-23T07:13:54.456Z,20.90
2023-09-23T07:16:21.472Z,21.00
2023-09-23T07:18:48.402Z,21.26
2023-09-23T07:21:16.719Z,21.35
2023-09-23T07:23:43.765Z,21.51
2023-09-23T07:26:10.781Z,21.51
2023-09-23T07:28:37.802Z,21.67
2023-09-23T07:31:10.626Z,21.83
2023-09-23T07:33:37.825Z,21.85
2023-09-23T07:36:11.784Z,22.02
2023-09-23T07:38:39.280Z,22.12
2023-09-23T07:41:06.604Z,22.21
2023-09-23T07:43:34.016Z,22.26
2023-09-23T07:46:01.394Z,22.21
2023-09-23T07:48:28.749Z,22.31
2023-09-23T07:50:55.915Z,22.45
2023-09-23T07:53:23.365Z,22.33
2023-09-23T07:55:51.506Z,22.52
2023-09-23T07:58:18.567Z,22.69
2023-09-23T08:00:45.519Z,22.54
2023-09-23T08:03:12.507Z,22.67
2023-09-23T08:05:39.492Z,22.69
2023-09-23T08:08:07.466Z,22.92
2023-09-23T08:10:34.420Z,22.90
2023-09-23T08:13:01.482Z,23.10
2023-09-23T08:15:28.424Z,23.13
2023-09-23T08:17:55.390Z,23.29
2023-09-23T08:20:25.225Z,23.20
2023-09-23T08:22:52.519Z,23.30
2023-09-23T08:25:19.540Z,23.15
2023-09-23T08:27:46.903Z,23.36
2023-09-23T08:30:16.606Z,23.39
2023-09-23T08:32:43.631Z,23.49
2023-09-23T08:35:10.672Z,23.56
2023-09-23T08:37:37.720Z,23.57
2023-09-23T08:40:12.455Z,23.71
2023-09-23T08:42:40.108Z,23.77
2023-09-23T08:45:10.414Z,23.72
2023-09-23T08:47:41.357Z,23.63
2023-09-23T08:50:11.859Z,23.66
2023-09-23T08:52:39.175Z,23.88
2023-09-23T08:55:08.750Z,23.91
2023-09-23T08:57:36.129Z,23.83
2023-09-23T09:00:08.324Z,23.90
2023-09-23T09:02:35.360Z,23.90
2023-09-23T09:05:02.514Z,24.06
2023-09-23T09:07:33.666Z,23.96
2023-09-23T09:10:00.782Z,24.04
2023-09-23T09:12:28.154Z,24.07
2023-09-23T09:14:55.170Z,24.00
2023-09-23T09:17:22.913Z,24.24
2023-09-23T09:19:52.493Z,24.38
2023-09-23T09:22:20.817Z,24.22
2023-09-23T09:24:50.912Z,24.39
2023-09-23T09:27:17.965Z,24.39
2023-09-23T09:29:50.122Z,24.39
2023-09-23T09:32:22.172Z,24.40
2023-09-23T09:34:49.965Z,24.33
2023-09-23T09:37:17.004Z,24.38
2023-09-23T09:39:57.072Z,24.40
2023-09-23T09:42:37.131Z,24.46
2023-09-23T09:45:26.126Z,24.41
2023-09-23T09:47:54.846Z,24.38
2023-09-23T09:50:24.890Z,24.40
2023-09-23T09:52:52.211Z,24.33
2023-09-23T09:55:20.638Z,24.50
2023-09-23T09:57:49.264Z,24.62
2023-09-23T10:00:28.218Z,24.71
2023-09-23T10:03:00.147Z,24.61
2023-09-23T10:05:43.017Z,24.34
2023-09-23T10:08:17.282Z,24.61
2023-09-23T10:10:47.730Z,24.41
2023-09-23T10:13:23.793Z,24.55
2023-09-23T10:15:51.112Z,24.57
2023-09-23T10:18:21.492Z,24.66
2023-09-23T10:20:52.305Z,24.67
2023-09-23T10:23:20.708Z,24.74
2023-09-23T10:25:52.690Z,24.84
2023-09-23T10:28:24.557Z,24.66
2023-09-23T10:31:01.901Z,24.49
2023-09-23T10:33:31.203Z,24.53
2023-09-23T10:35:59.627Z,24.49
2023-09-23T10:38:29.702Z,24.70
2023-09-23T10:40:56.776Z,24.87
2023-09-23T10:43:24.546Z,24.93
2023-09-23T10:45:54.579Z,24.72
2023-09-23T10:48:22.347Z,24.83
2023-09-23T10:50:51.952Z,24.89
2023-09-23T10:53:29.410Z,24.81
2023-09-23T10:55:57.209Z,24.81
2023-09-23T10:58:24.440Z,24.80
2023-09-23T11:00:54.768Z,24.87
2023-09-23T11:03:22.990Z,24.72
2023-09-23T11:05:52.544Z,24.86
2023-09-23T11:08:19.729Z,24.77
2023-09-23T11:10:47.814Z,24.76
2023-09-23T11:13:16.065Z,24.82
2023-09-23T11:15:46.946Z,24.96
2023-09-23T11:18:18.487Z,24.93
2023-09-23T11:20:48.202Z,24.84
2023-09-23T11:23:15.529Z,24.87
2023-09-23T11:25:43.689Z,24.96
2023-09-23T11:28:17.804Z,24.94
2023-09-23T11:30:44.793Z,24.95
2023-09-23T11:33:13.069Z,24.94
2023-09-23T11:35:40.911Z,24.86
2023-09-23T11:38:08.184Z,24.96
2023-09-23T11:40:37.925Z,24.96
2023-09-23T11:43:07.363Z,24.94
2023-09-23T11:45:34.863Z,24.80
2023-09-23T11:48:05.022Z,24.85
2023-09-23T11:50:57.097Z,24.94
2023-09-23T11:53:24.168Z,24.76
2023-09-23T11:55:51.262Z,24.75
2023-09-23T11:58:18.241Z,24.78
2023-09-23T12:00:45.412Z,24.80
2023-09-23T12:03:12.935Z,24.78
2023-09-23T12:05:41.315Z,24.78
2023-09-23T12:08:11.171Z,24.77
2023-09-23T12:10:38.195Z,24.74
2023-09-23T12:13:06.866Z,24.80
2023-09-23T12:15:35.402Z,24.90
2023-09-23T12:18:02.726Z,24.86
2023-09-23T12:20:30.019Z,24.74
2023-09-23T12:23:00.212Z,24.59
2023-09-23T12:25:27.337Z,24.70
2023-09-23T12:27:54.756Z,24.65
2023-09-23T12:30:22.014Z,24.74
2023-09-23T12:32:49.014Z,24.80
2023-09-23T12:35:16.054Z,24.81
2023-09-23T12:37:43.098Z,24.70
2023-09-23T12:40:11.340Z,24.76
2023-09-23T12:42:38.632Z,24.73
2023-09-23T12:45:07.644Z,24.66
2023-09-23T12:47:53.251Z,24.68
2023-09-23T12:50:21.705Z,24.65
2023-09-23T12:52:48.749Z,24.61
2023-09-23T12:55:16.006Z,24.59
2023-09-23T12:57:42.918Z,24.49
2023-09-23T13:00:10.548Z,24.61
2023-09-23T13:02:37.638Z,24.45
2023-09-23T13:05:04.765Z,24.38
2023-09-23T13:07:31.763Z,24.28
2023-09-23T13:09:58.727Z,24.46
2023-09-23T13:12:25.662Z,24.46
2023-09-23T13:14:53.736Z,24.44
2023-09-23T13:17:20.778Z,24.48
2023-09-23T13:19:47.820Z,24.40
2023-09-23T13:22:14.741Z,24.44
2023-09-23T13:24:42.547Z,24.43
2023-09-23T13:27:09.754Z,24.42
2023-09-23T13:29:36.828Z,24.39
2023-09-23T13:32:03.930Z,24.28
2023-09-23T13:34:30.858Z,24.35
2023-09-23T13:36:57.742Z,24.32
2023-09-23T13:39:24.628Z,24.28
2023-09-23T13:41:54.073Z,24.33
2023-09-23T13:44:21.473Z,24.31
2023-09-23T13:46:48.455Z,24.36
2023-09-23T13:49:15.514Z,24.37
2023-09-23T13:51:42.528Z,24.37
2023-09-23T13:54:09.494Z,24.23
2023-09-23T13:56:37.156Z,24.23
2023-09-23T13:59:04.240Z,24.35
2023-09-23T14:01:31.271Z,24.31
2023-09-23T14:03:58.247Z,24.12
2023-09-23T14:06:26.015Z,24.08
2023-09-23T14:08:54.986Z,24.10
2023-09-23T14:11:22.010Z,24.12
2023-09-23T14:13:48.929Z,24.15
2023-09-23T14:16:15.815Z,24.21
2023-09-23T14:18:42.819Z,24.01
2023-09-23T14:21:09.884Z,24.11
2023-09-23T14:23:36.844Z,24.02
2023-09-23T14:26:04.071Z,23.95
2023-09-23T14:28:31.019Z,23.87
2023-09-23T14:30:58.070Z,23.94
2023-09-23T14:33:25.196Z,23.90
2023-09-23T14:35:52.732Z,23.84
2023-09-23T14:38:19.723Z,23.63
2023-09-23T14:40:47.543Z,23.72
2023-09-23T14:43:14.480Z,23.69
2023-09-23T14:45:41.399Z,23.69
2023-09-23T14:48:08.423Z,23.67
2023-09-23T14:50:37.335Z,23.58
2023-09-23T14:53:04.559Z,23.61
2023-09-23T14:55:32.196Z,23.47
2023-09-23T14:57:59.442Z,23.38
2023-09-23T15:00:26.414Z,23.36
2023-09-23T15:02:53.545Z,23.34
2023-09-23T15:05:22.097Z,23.21
2023-09-23T15:07:49.178Z,23.21
2023-09-23T15:10:16.140Z,23.17
2023-09-23T15:12:46.823Z,23.09
2023-09-23T15:15:16.388Z,23.00
2023-09-23T15:18:20.731Z,22.93
2023-09-23T15:20:47.731Z,22.87
2023-09-23T15:23:14.733Z,22.84
2023-09-23T15:25:41.641Z,22.76
2023-09-23T15:28:09.646Z,22.67
2023-09-23T15:30:37.746Z,22.59
2023-09-23T15:33:05.040Z,22.43
2023-09-23T15:35:33.052Z,22.28
2023-09-23T15:38:00.875Z,22.19
2023-09-23T15:40:27.786Z,22.12
2023-09-23T15:42:55.081Z,22.12
2023-09-23T15:45:22.007Z,22.04
2023-09-23T15:47:49.032Z,22.00
2023-09-23T15:50:16.299Z,21.94
2023-09-23T15:52:43.834Z,21.90
2023-09-23T15:55:12.495Z,21.74
2023-09-23T15:57:40.333Z,21.59
2023-09-23T16:00:08.113Z,21.64
2023-09-23T16:02:35.970Z,21.68
2023-09-23T16:05:02.980Z,21.69
2023-09-23T16:07:30.528Z,21.67
2023-09-23T16:09:57.735Z,21.64
2023-09-23T16:12:24.683Z,21.61
2023-09-23T16:14:51.649Z,21.60
2023-09-23T16:17:18.656Z,21.51
2023-09-23T16:19:48.878Z,21.46
2023-09-23T16:22:15.984Z,21.43
2023-09-23T16:24:44.006Z,21.42
2023-09-23T16:27:10.925Z,21.38
2023-09-23T16:29:37.933Z,21.34
2023-09-23T16:32:05.001Z,21.24
2023-09-23T16:34:31.971Z,21.17
2023-09-23T16:37:00.056Z,21.13
2023-09-23T16:39:27.045Z,21.09
2023-09-23T16:41:55.261Z,21.08
2023-09-23T16:44:22.320Z,21.09
2023-09-23T16:46:58.465Z,21.08
2023-09-23T16:49:27.924Z,21.04
2023-09-23T16:51:54.902Z,21.03
2023-09-23T16:54:21.795Z,20.94
2023-09-23T16:56:48.815Z,20.90
2023-09-23T16:59:16.263Z,20.82
2023-09-23T17:01:49.230Z,20.79
2023-09-23T17:04:18.378Z,20.78
2023-09-23T17:06:45.339Z,20.79
2023-09-23T17:09:12.350Z,20.76
2023-09-23T17:11:39.347Z,20.74
2023-09-23T17:14:06.828Z,20.78
2023-09-23T17:16:35.124Z,20.78
2023-09-23T17:19:03.624Z,20.76
2023-09-23T17:21:30.631Z,20.69
2023-09-23T17:23:57.752Z,20.70
2023-09-23T17:26:27.608Z,20.71
2023-09-23T17:29:01.258Z,20.68
2023-09-23T17:31:28.401Z,20.66
2023-09-23T17:33:55.616Z,20.58
2023-09-23T17:36:22.606Z,20.56
2023-09-23T17:38:49.899Z,20.44
2023-09-23T17:41:18.264Z,20.39
2023-09-23T17:43:45.769Z,20.32
2023-09-23T17:46:12.934Z,20.42
2023-09-23T17:48:41.436Z,20.37
2023-09-23T17:51:09.159Z,20.35
2023-09-23T17:53:36.251Z,20.37
2023-09-23T17:56:03.785Z,20.41
2023-09-23T17:58:31.192Z,20.29
2023-09-23T18:00:58.181Z,20.29
2023-09-23T18:03:27.500Z,20.29
2023-09-23T18:05:55.456Z,20.30
2023-09-23T18:08:22.449Z,20.13
2023-09-23T18:10:51.304Z,20.11
2023-09-23T18:13:18.225Z,20.25
2023-09-23T18:15:45.330Z,20.30
2023-09-23T18:18:12.480Z,20.21
2023-09-23T18:20:39.610Z,20.01
2023-09-23T18:23:07.210Z,20.13
2023-09-23T18:25:34.198Z,20.15
2023-09-23T18:28:01.102Z,20.09
2023-09-23T18:30:29.002Z,20.15
2023-09-23T18:32:56.169Z,20.24
2023-09-23T18:35:23.911Z,20.22
2023-09-23T18:37:51.123Z,20.12
2023-09-23T18:40:18.129Z,20.08
2023-09-23T18:42:47.003Z,19.99
2023-09-23T18:45:14.018Z,19.98
2023-09-23T18:47:40.978Z,19.90
2023-09-23T18:50:13.471Z,19.94
2023-09-23T18:52:40.467Z,20.03
2023-09-23T18:55:07.553Z,19.87
2023-09-23T18:57:34.871Z,19.92
2023-09-23T19:00:04.082Z,19.96
2023-09-23T19:02:32.226Z,19.94
2023-09-23T19:04:59.291Z,19.97
2023-09-23T19:07:26.439Z,19.86
2023-09-23T19:09:53.770Z,19.84
2023-09-23T19:12:20.728Z,19.78
2023-09-23T19:14:47.830Z,19.82
2023-09-23T19:17:22.201Z,19.89
2023-09-23T19:19:52.758Z,19.92
2023-09-23T19:22:19.634Z,19.88
2023-09-23T19:24:46.554Z,19.84
2023-09-23T19:27:13.820Z,19.74
2023-09-23T19:29:40.835Z,19.58
2023-09-23T19:32:08.992Z,19.56
2023-09-23T19:34:37.159Z,19.44
2023-09-23T19:37:04.121Z,19.35
2023-09-23T19:39:32.535Z,19.32
2023-09-23T19:41:59.461Z,19.34
2023-09-23T19:44:27.049Z,19.19
2023-09-23T19:46:54.024Z,19.17
2023-09-23T19:49:20.994Z,19.20
2023-09-23T19:51:47.936Z,19.28
2023-09-23T19:54:14.987Z,19.41
2023-09-23T19:56:42.057Z,19.50
2023-09-23T19:59:10.419Z,19.44
2023-09-23T20:01:38.932Z,19.41
2023-09-23T20:04:06.157Z,19.36
2023-09-23T20:06:33.155Z,19.41
2023-09-23T20:09:00.213Z,19.45
2023-09-23T20:11:28.302Z,19.39
2023-09-23T20:13:55.514Z,19.27
2023-09-23T20:16:23.198Z,19.22
2023-09-23T20:18:50.660Z,19.18
2023-09-23T20:21:17.719Z,19.15
2023-09-23T20:23:44.908Z,19.20
2023-09-23T20:26:11.993Z,19.34
2023-09-23T20:28:38.999Z,19.31
2023-09-23T20:31:06.217Z,19.34
2023-09-23T20:33:33.315Z,19.36
2023-09-23T20:36:01.492Z,19.29
2023-09-23T20:38:28.570Z,19.26
2023-09-23T20:41:07.151Z,19.21
2023-09-23T20:43:36.262Z,19.23
2023-09-23T20:46:04.609Z,19.26
2023-09-23T20:48:31.846Z,19.35
2023-09-23T20:50:59.339Z,19.38
2023-09-23T20:53:26.343Z,19.34
2023-09-23T20:55:53.435Z,19.33
2023-09-23T20:58:20.400Z,19.28
2023-09-23T21:00:47.385Z,19.19
2023-09-23T21:03:16.995Z,19.15
2023-09-23T21:05:44.394Z,19.21
2023-09-23T21:08:11.579Z,19.17
2023-09-23T21:10:38.697Z,19.12
2023-09-23T21:13:05.606Z,19.22
2023-09-23T21:15:33.535Z,19.16
2023-09-23T21:18:04.720Z,19.19
2023-09-23T21:20:32.054Z,19.07
2023-09-23T21:23:03.093Z,19.07
2023-09-23T21:25:31.351Z,19.13
2023-09-23T21:27:58.273Z,19.17
2023-09-23T21:30:25.839Z,19.15
2023-09-23T21:32:53.035Z,19.07
2023-09-23T21:35:20.475Z,19.06
2023-09-23T21:37:47.407Z,19.09
2023-09-23T21:40:14.341Z,19.08
2023-09-23T21:42:41.269Z,19.09
2023-09-23T21:45:08.453Z,19.06
2023-09-23T21:47:35.536Z,19.04
2023-09-23T21:50:02.585Z,18.98
2023-09-23T21:52:30.750Z,18.89
2023-09-23T21:54:57.705Z,18.84
2023-09-23T21:57:26.526Z,18.88
2023-09-23T21:59:53.660Z,18.91
2023-09-23T22:02:26.161Z,18.93
2023-09-23T22:04:53.822Z,18.93
2023-09-23T22:07:20.704Z,18.89
2023-09-23T22:09:48.018Z,18.84
2023-09-23T22:12:16.111Z,18.91
2023-09-23T22:14:46.414Z,18.95
2023-09-23T22:17:15.395Z,18.94
2023-09-23T22:19:42.436Z,18.90
2023-09-23T22:22:12.173Z,18.81
2023-09-23T22:24:40.516Z,18.78
2023-09-23T22:27:07.431Z,18.75
2023-09-23T22:29:35.057Z,18.59
2023-09-23T22:32:02.781Z,18.54
2023-09-23T22:34:29.762Z,18.52
2023-09-23T22:36:56.758Z,18.53
2023-09-23T22:39:24.602Z,18.39
2023-09-23T22:41:51.568Z,18.40
2023-09-23T22:44:20.058Z,18.35
2023-09-23T22:46:47.731Z,18.40
2023-09-23T22:49:16.910Z,18.36
2023-09-23T22:51:43.824Z,18.36
2023-09-23T22:54:11.722Z,18.42
2023-09-23T22:56:38.699Z,18.44
2023-09-23T22:59:06.065Z,18.45
2023-09-23T23:01:34.579Z,18.47
2023-09-23T23:04:01.510Z,18.42
2023-09-23T23:06:29.076Z,18.42
2023-09-23T23:08:57.845Z,18.41
2023-09-23T23:11:25.388Z,18.37
2023-09-23T23:13:52.372Z,18.36
2023-09-23T23:16:22.284Z,18.33
2023-09-23T23:18:49.249Z,18.20
2023-09-23T23:21:16.146Z,18.24
2023-09-23T23:23:43.116Z,18.27
2023-09-23T23:26:10.088Z,18.24
2023-09-23T23:28:37.669Z,18.21
2023-09-23T23:31:08.355Z,18.18
2023-09-23T23:33:35.527Z,18.18
2023-09-23T23:36:03.841Z,18.13
2023-09-23T23:38:31.751Z,18.03
2023-09-23T23:40:59.698Z,18.05
2023-09-23T23:43:27.528Z,18.10
2023-09-23T23:46:14.342Z,18.11
2023-09-23T23:48:41.276Z,18.10
2023-09-23T23:51:12.368Z,18.14
2023-09-23T23:53:40.298Z,18.10
2023-09-23T23:56:07.588Z,18.06
2023-09-23T23:58:34.627Z,17.98
